Time;durP1;ratioP1;P1;durP2;ratioP2;P2;SDS_P1;SDS_P2;PMS_P1;PMS_P2;Temp;Humidity;BMP_temperature;BMP_pressure;BME280_temperature;BME280_humidity;BME280_pressure;Samples;Min_cycle;Max_cycle;Signal;HPM_P1;HPM_P2
2024/03/02 00:01:19;;;;;;;;;;;;;;;-144.99;95.20;52497.00;4968338;28;20438;-68
2024/03/02 00:03:45;;;;;;;;;;;;;;;-144.99;95.24;52547.97;5003073;28;19928;-70
2024/03/02 00:06:12;;;;;;;;;;;;;;;-144.99;95.65;52505.16;4967512;28;19930;-70
2024/03/02 00:08:40;;;;;;;;;;;;;;;-144.99;96.14;52521.47;4986222;28;20368;-69
2024/03/02 00:11:06;;;;;;;;;;;;;;;-144.99;95.94;52452.16;4971595;28;19981;-70
2024/03/02 00:13:34;;;;;;;;;;;;;;;-144.99;95.88;52533.69;4986866;28;19981;-69
2024/03/02 00:16:01;;;;;;;;;;;;;;;-144.99;96.00;52513.31;4994244;28;19948;-72
2024/03/02 00:18:31;;;;;;;;;;;;;;;-144.99;95.88;52525.56;4971863;28;20317;-68
2024/03/02 00:20:58;;;;;;;;;;;;;;;-144.99;96.16;52513.31;4971281;28;19968;-65
2024/03/02 00:23:25;;;;;;;;;;;;;;;-144.99;96.12;52531.66;4964507;28;19975;-66
2024/03/02 00:25:54;;;;;;;;;;;;;;;-144.99;96.12;52490.91;5014331;28;20025;-61
2024/03/02 00:28:21;;;;;;;;;;;;;;;-144.99;96.19;52543.91;4965027;28;19976;-64
2024/03/02 00:30:58;;;;;;;;;;;;;;;-144.99;95.93;52533.69;4972796;28;19949;-63
2024/03/02 00:33:27;;;;;;;;;;;;;;;-144.99;96.13;52511.28;4988819;28;19937;-63
2024/03/02 00:35:53;;;;;;;;;;;;;;;-144.99;95.98;52523.50;5000816;28;20016;-63
2024/03/02 00:38:20;;;;;;;;;;;;;;;-144.99;95.99;52545.94;4967660;28;20020;-62
2024/03/02 00:40:47;;;;;;;;;;;;;;;-144.99;95.77;52499.06;4969878;28;19937;-64
2024/03/02 00:43:27;;;;;;;;;;;;;;;-144.99;96.03;52503.13;4963361;28;20005;-63
2024/03/02 00:45:54;;;;;;;;;;;;;;;-144.99;95.70;52509.25;4995063;28;20201;-64
2024/03/02 00:48:21;;;;;;;;;;;;;;;-144.99;95.82;52501.09;4979831;28;19930;-63
2024/03/02 00:50:51;;;;;;;;;;;;;;;-144.99;96.06;52513.31;4971332;28;20013;-63
2024/03/02 00:53:18;;;;;;;;;;;;;;;-144.99;95.70;52525.56;4964602;28;20064;-64
2024/03/02 00:55:47;;;;;;;;;;;;;;;-144.99;96.09;52529.63;4979007;28;19926;-63
2024/03/02 00:58:13;;;;;;;;;;;;;;;-144.99;96.08;52521.47;4980722;28;20411;-63
2024/03/02 01:00:41;;;;;;;;;;;;;;;-144.99;96.18;52513.31;5006586;28;20019;-62
2024/03/02 01:03:10;;;;;;;;;;;;;;;-144.99;95.99;52515.34;4969794;28;19934;-62
2024/03/02 01:05:36;;;;;;;;;;;;;;;-144.99;96.04;52513.31;4966869;28;19930;-60
2024/03/02 01:08:03;;;;;;;;;;;;;;;-144.99;96.10;52488.84;4998728;28;20006;-72
2024/03/02 01:10:30;;;;;;;;;;;;;;;-144.99;96.49;52525.56;4980079;28;20047;-72
2024/03/02 01:12:57;;;;;;;;;;;;;;;-144.99;96.19;52545.94;4980561;28;19931;-72
2024/03/02 01:15:23;;;;;;;;;;;;;;;-144.99;96.31;52521.47;4970990;28;19930;-72
2024/03/02 01:17:51;;;;;;;;;;;;;;;-144.99;96.10;52537.78;4978349;28;19928;-73
2024/03/02 01:20:18;;;;;;;;;;;;;;;-144.99;96.20;52501.09;4999954;28;19933;-73
2024/03/02 01:22:44;;;;;;;;;;;;;;;-144.99;96.14;52488.84;4966981;28;20269;-69
2024/03/02 01:25:11;;;;;;;;;;;;;;;-144.99;96.24;52521.47;4968982;28;19926;-69
2024/03/02 01:27:37;;;;;;;;;;;;;;;-144.99;96.57;52458.28;4967119;28;20031;-69
2024/03/02 01:30:04;;;;;;;;;;;;;;;-144.99;96.48;52529.63;4996391;28;20367;-70
2024/03/02 01:32:30;;;;;;;;;;;;;;;-144.99;96.52;52511.28;4972581;28;20036;-70
2024/03/02 01:34:58;;;;;;;;;;;;;;;-144.99;96.79;52517.41;4969715;28;20059;-70
2024/03/02 01:37:24;;;;;;;;;;;;;;;-144.99;96.96;52468.47;4977147;28;20305;-69
2024/03/02 01:39:51;;;;;;;;;;;;;;;-144.99;96.92;52484.78;4978431;28;20031;-70
2024/03/02 01:42:17;;;;;;;;;;;;;;;-144.99;97.27;52492.94;4982732;28;20018;-69
2024/03/02 01:44:44;;;;;;;;;;;;;;;-144.99;97.28;52472.56;4967497;28;20332;-69
2024/03/02 01:47:10;;;;;;;;;;;;;;;-144.99;96.89;52484.78;4971910;28;19974;-63
2024/03/02 01:49:38;;;;;;;;;;;;;;;-144.99;96.92;52505.16;4969891;28;20006;-62
2024/03/02 01:52:06;;;;;;;;;;;;;;;-144.99;96.99;52490.91;5020311;28;20304;-62
2024/03/02 01:54:33;;;;;;;;;;;;;;;-144.99;97.08;52517.41;4970916;28;19977;-62
2024/03/02 01:56:59;;;;;;;;;;;;;;;-144.99;97.24;52525.56;4993990;28;19929;-62
2024/03/02 01:59:26;;;;;;;;;;;;;;;-144.99;97.39;52509.25;4991624;28;20366;-62
2024/03/02 02:01:52;;;;;;;;;;;;;;;-144.99;97.62;52509.25;5019043;28;19926;-62
2024/03/02 02:04:21;;;;;;;;;;;;;;;-144.99;98.05;52476.63;4991299;28;19969;-62
2024/03/02 02:06:47;;;;;;;;;;;;;;;-144.99;98.49;52456.25;4969561;28;19941;-61
2024/03/02 02:09:18;;;;;;;;;;;;;;;-144.99;98.54;52525.56;4972283;28;20031;-61
2024/03/02 02:11:44;;;;;;;;;;;;;;;-144.99;98.53;52505.16;4984036;28;20020;-60
2024/03/02 02:14:11;;;;;;;;;;;;;;;-144.99;98.51;52513.31;4977374;28;19930;-61
2024/03/02 02:16:37;;;;;;;;;;;;;;;-144.99;98.99;52517.41;4989337;28;19929;-60
2024/03/02 02:19:04;;;;;;;;;;;;;;;-144.99;99.72;52497.00;4968997;28;19981;-61
2024/03/02 02:21:32;;;;;;;;;;;;;;;-144.99;100.00;52497.00;4979928;28;19937;-62
2024/03/02 02:23:58;;;;;;;;;;;;;;;-144.99;100.00;52537.78;4669767;28;9999895;-62
2024/03/02 02:26:25;;;;;;;;;;;;;;;-144.99;100.00;52533.69;4989319;28;20048;-63
2024/03/02 02:28:51;;;;;;;;;;;;;;;-144.99;100.00;52497.00;4967714;28;20025;-63
2024/03/02 02:31:18;;;;;;;;;;;;;;;-144.99;100.00;52497.00;4991624;28;19933;-63
2024/03/02 02:33:44;;;;;;;;;;;;;;;-144.99;100.00;52509.25;4994823;28;20019;-63
2024/03/02 02:36:11;;;;;;;;;;;;;;;-144.99;100.00;52492.94;4998837;28;19969;-63
2024/03/02 02:38:40;;;;;;;;;;;;;;;-144.99;100.00;52513.31;4977853;28;19937;-65
2024/03/02 02:41:07;;;;;;;;;;;;;;;-144.99;100.00;52517.41;4978914;28;20451;-65
2024/03/02 02:43:33;;;;;;;;;;;;;;;-144.99;100.00;52525.56;4987490;28;19953;-64
2024/03/02 02:46:00;;;;;;;;;;;;;;;-144.99;100.00;52505.16;4974252;28;20009;-64
2024/03/02 02:48:26;;;;;;;;;;;;;;;-144.99;100.00;52488.84;4973628;28;19966;-64
2024/03/02 02:50:53;;;;;;;;;;;;;;;-144.99;100.00;52521.47;4980997;28;19932;-63
2024/03/02 02:53:19;;;;;;;;;;;;;;;-144.99;100.00;52505.16;5004603;28;20032;-63
2024/03/02 02:55:47;;;;;;;;;;;;;;;-144.99;100.00;52476.63;4983117;28;19930;-64
2024/03/02 02:58:14;;;;;;;;;;;;;;;-144.99;100.00;52517.41;4974496;28;20045;-64
2024/03/02 03:00:41;;;;;;;;;;;;;;;-144.99;100.00;52497.00;4974336;28;19948;-64
2024/03/02 03:03:07;;;;;;;;;;;;;;;-144.99;100.00;52533.69;4988278;28;19959;-61
2024/03/02 03:05:34;;;;;;;;;;;;;;;-144.99;100.00;52505.16;4972774;28;20372;-62
2024/03/02 03:08:00;;;;;;;;;;;;;;;-144.99;100.00;52541.84;4970747;28;19930;-66
2024/03/02 03:10:27;;;;;;;;;;;;;;;-144.99;100.00;52490.91;4994787;28;19933;-66
2024/03/02 03:12:56;;;;;;;;;;;;;;;-144.99;100.00;52533.69;4974568;28;19927;-66
2024/03/02 03:15:22;;;;;;;;;;;;;;;-144.99;100.00;52529.63;4983708;28;20071;-67
2024/03/02 03:17:50;;;;;;;;;;;;;;;-144.99;100.00;52505.16;4968086;28;20170;-68
2024/03/02 03:20:17;;;;;;;;;;;;;;;-144.99;100.00;52513.31;4973842;28;20248;-66
2024/03/02 03:22:43;;;;;;;;;;;;;;;-144.99;100.00;52517.41;4970171;28;19926;-68
2024/03/02 03:25:10;;;;;;;;;;;;;;;-144.99;100.00;52488.84;4987716;28;20017;-67
2024/03/02 03:27:36;;;;;;;;;;;;;;;-144.99;100.00;52505.16;4975700;28;19930;-66
2024/03/02 03:30:05;;;;;;;;;;;;;;;-144.99;100.00;52533.69;4989956;28;20021;-64
2024/03/02 03:32:32;;;;;;;;;;;;;;;-144.99;100.00;52501.09;4968023;28;19973;-68
2024/03/02 03:34:58;;;;;;;;;;;;;;;-144.99;100.00;52492.94;4995700;28;19941;-68
2024/03/02 03:37:26;;;;;;;;;;;;;;;-144.99;100.00;52492.94;4993570;28;19954;-69
2024/03/02 03:39:53;;;;;;;;;;;;;;;-144.99;100.00;52550.00;4969897;28;19926;-63
2024/03/02 03:42:19;;;;;;;;;;;;;;;-144.99;100.00;52505.16;4975702;28;19934;-63
2024/03/02 03:44:46;;;;;;;;;;;;;;;-144.99;100.00;52505.16;4984471;28;19951;-63
2024/03/02 03:47:14;;;;;;;;;;;;;;;-144.99;100.00;52501.09;5012286;22;20094;-63
2024/03/02 03:49:40;;;;;;;;;;;;;;;-144.99;100.00;52521.47;4939140;28;20001;-64
2024/03/02 03:52:06;;;;;;;;;;;;;;;-144.99;100.00;52488.84;4961318;28;19927;-62
2024/03/02 03:54:33;;;;;;;;;;;;;;;-144.99;100.00;52517.41;4951087;28;19958;-62
2024/03/02 03:56:59;;;;;;;;;;;;;;;-144.99;100.00;52545.94;4946800;28;20009;-62
2024/03/02 03:59:26;;;;;;;;;;;;;;;-144.99;100.00;52497.00;4956172;28;20304;-62
2024/03/02 04:01:53;;;;;;;;;;;;;;;-144.99;100.00;52521.47;4975764;28;19927;-62
2024/03/02 04:04:21;;;;;;;;;;;;;;;-144.99;100.00;52521.47;4963383;28;20306;-61
2024/03/02 04:06:47;;;;;;;;;;;;;;;-144.99;100.00;52525.56;4946122;28;19982;-62
2024/03/02 04:09:14;;;;;;;;;;;;;;;-144.99;100.00;52513.31;4968885;28;20387;-62
2024/03/02 04:11:40;;;;;;;;;;;;;;;-144.99;100.00;52492.94;4954470;28;20027;-62
2024/03/02 04:14:07;;;;;;;;;;;;;;;-144.99;100.00;52529.63;4965614;28;20276;-63
2024/03/02 04:16:34;;;;;;;;;;;;;;;-144.99;100.00;52509.25;4955464;28;19959;-63
2024/03/02 04:19:00;;;;;;;;;;;;;;;-144.99;100.00;52501.09;4937572;28;20030;-64
2024/03/02 04:21:28;;;;;;;;;;;;;;;-144.99;100.00;52480.72;4963203;28;19933;-64
2024/03/02 04:23:58;;;;;;;;;;;;;;;-144.99;100.00;52513.31;4943491;28;19934;-64
2024/03/02 04:26:25;;;;;;;;;;;;;;;-144.99;100.00;52523.50;4969341;28;20421;-64
2024/03/02 04:28:51;;;;;;;;;;;;;;;-144.99;100.00;52531.66;4943596;28;19931;-65
2024/03/02 04:31:18;;;;;;;;;;;;;;;-144.99;100.00;52472.56;4981782;28;20027;-64
2024/03/02 04:33:44;;;;;;;;;;;;;;;-144.99;100.00;52486.81;4951344;28;19930;-64
2024/03/02 04:36:11;;;;;;;;;;;;;;;-144.99;100.00;52484.78;4963836;28;19926;-63
2024/03/02 04:38:39;;;;;;;;;;;;;;;-144.99;100.00;52497.00;4947808;28;19973;-63
2024/03/02 04:41:06;;;;;;;;;;;;;;;-144.99;100.00;52497.00;4944125;28;20018;-62
2024/03/02 04:43:33;;;;;;;;;;;;;;;-144.99;100.00;52484.78;4957599;28;19952;-64
2024/03/02 04:46:00;;;;;;;;;;;;;;;-144.99;100.00;52509.25;4976950;28;19927;-61
2024/03/02 04:48:26;;;;;;;;;;;;;;;-144.99;100.00;52541.84;4996995;28;19972;-64
2024/03/02 04:50:53;;;;;;;;;;;;;;;-144.99;100.00;52488.84;4958642;28;20047;-63
2024/03/02 04:53:20;;;;;;;;;;;;;;;-144.99;100.00;52519.44;4963868;28;20257;-63
2024/03/02 04:56:19;;;;;;;;;;;;;;;-144.99;100.00;52558.16;4958740;28;20346;-63
2024/03/02 04:58:45;;;;;;;;;;;;;;;-144.99;100.00;52513.31;4972973;28;20351;-62
2024/03/02 05:01:12;;;;;;;;;;;;;;;-144.99;100.00;52517.41;4933152;28;19972;-63
2024/03/02 05:03:38;;;;;;;;;;;;;;;-144.99;100.00;52505.16;4955939;28;20024;-63
2024/03/02 05:06:05;;;;;;;;;;;;;;;-144.99;100.00;52541.84;4967088;28;20327;-63
2024/03/02 05:08:33;;;;;;;;;;;;;;;-144.99;100.00;52517.41;4973880;28;21392;-63
2024/03/02 05:11:29;;;;;;;;;;;;;;;-144.99;100.00;52554.09;4939964;28;19981;-63
2024/03/02 05:13:48;;;;;;;;;;;;;;;-144.99;100.00;52507.19;4943472;28;20285;-63
2024/03/02 05:16:14;;;;;;;;;;;;;;;-144.99;100.00;52525.56;4939762;28;19933;-63
2024/03/02 05:18:40;;;;;;;;;;;;;;;-144.99;100.00;52537.78;4953709;28;20397;-63
2024/03/02 05:21:07;;;;;;;;;;;;;;;-144.99;100.00;52533.69;4947842;28;20058;-63
2024/03/02 05:23:34;;;;;;;;;;;;;;;-144.99;100.00;52523.50;4933609;28;19970;-63
2024/03/02 05:26:02;;;;;;;;;;;;;;;-144.99;100.00;52509.25;4953049;28;20145;-63
2024/03/02 05:28:28;;;;;;;;;;;;;;;-144.99;100.00;52509.25;4960957;28;20348;-63
2024/03/02 05:30:55;;;;;;;;;;;;;;;-144.99;100.00;52521.47;4977877;28;19966;-63
2024/03/02 05:33:22;;;;;;;;;;;;;;;-144.99;100.00;52541.84;4959865;28;19930;-63
2024/03/02 05:35:49;;;;;;;;;;;;;;;-144.99;100.00;52513.31;4965087;28;19934;-62
2024/03/02 05:38:16;;;;;;;;;;;;;;;-144.99;100.00;52511.28;4948608;28;19931;-63
2024/03/02 05:40:42;;;;;;;;;;;;;;;-144.99;100.00;52501.09;4936734;28;20343;-62
2024/03/02 05:43:10;;;;;;;;;;;;;;;-144.99;100.00;52541.84;4931249;28;20371;-62
2024/03/02 05:45:37;;;;;;;;;;;;;;;-144.99;100.00;52517.41;4956124;28;19934;-69
2024/03/02 05:48:03;;;;;;;;;;;;;;;-144.99;100.00;52501.09;4982485;28;19965;-69
2024/03/02 05:50:30;;;;;;;;;;;;;;;-144.99;100.00;52509.25;4980833;28;20010;-68
2024/03/02 05:52:56;;;;;;;;;;;;;;;-144.99;100.00;52529.63;4969248;28;19977;-62
2024/03/02 05:55:23;;;;;;;;;;;;;;;-144.99;100.00;52529.63;4949788;28;19929;-62
2024/03/02 05:58:02;;;;;;;;;;;;;;;-144.99;100.00;52478.66;4952174;28;19938;-62
2024/03/02 06:00:31;;;;;;;;;;;;;;;-144.99;100.00;52497.00;4960302;28;19931;-62
2024/03/02 06:02:57;;;;;;;;;;;;;;;-144.99;100.00;52529.63;4929713;28;19934;-62
2024/03/02 06:05:24;;;;;;;;;;;;;;;-144.99;100.00;52517.41;4957647;28;19927;-62
2024/03/02 06:07:50;;;;;;;;;;;;;;;-144.99;100.00;52513.31;4949767;28;19946;-62
2024/03/02 06:10:17;;;;;;;;;;;;;;;-144.99;100.00;52507.19;4968242;28;20343;-62
2024/03/02 06:12:44;;;;;;;;;;;;;;;-144.99;100.00;52492.94;4947101;28;20503;-63
2024/03/02 06:15:10;;;;;;;;;;;;;;;-144.99;100.00;52486.81;4969052;28;20024;-64
2024/03/02 06:17:38;;;;;;;;;;;;;;;-144.99;100.00;52533.69;4957246;28;20431;-63
2024/03/02 06:20:07;;;;;;;;;;;;;;;-144.99;100.00;52517.41;4946429;28;19970;-64
2024/03/02 06:22:34;;;;;;;;;;;;;;;-144.99;100.00;52509.25;4957121;28;20009;-63
2024/03/02 06:25:01;;;;;;;;;;;;;;;-144.99;100.00;52517.41;4946198;28;20447;-65
2024/03/02 06:27:27;;;;;;;;;;;;;;;-144.99;100.00;52517.41;4935953;28;19970;-67
2024/03/02 06:29:54;;;;;;;;;;;;;;;-144.99;100.00;52529.63;4961578;28;19925;-67
2024/03/02 06:32:21;;;;;;;;;;;;;;;-144.99;100.00;52537.78;4969902;28;19973;-67
2024/03/02 06:34:49;;;;;;;;;;;;;;;-144.99;100.00;52501.09;4974839;28;20468;-67
2024/03/02 06:37:15;;;;;;;;;;;;;;;-144.99;100.00;52521.47;4939390;28;19988;-67
2024/03/02 06:39:42;;;;;;;;;;;;;;;-144.99;100.00;52480.72;4941241;28;19949;-70
2024/03/02 06:42:08;;;;;;;;;;;;;;;-144.99;100.00;52492.94;4942346;28;19931;-71
2024/03/02 06:44:35;;;;;;;;;;;;;;;-144.99;100.00;52509.25;4958657;28;19927;-70
2024/03/02 06:47:01;;;;;;;;;;;;;;;-144.99;100.00;52488.84;4960086;28;19988;-68
2024/03/02 06:49:28;;;;;;;;;;;;;;;-144.99;100.00;52513.31;4953374;28;20369;-69
2024/03/02 06:51:56;;;;;;;;;;;;;;;-144.99;100.00;52507.19;4960438;28;19984;-69
2024/03/02 06:54:23;;;;;;;;;;;;;;;-144.99;100.00;52570.38;4934950;28;20018;-68
2024/03/02 06:56:49;;;;;;;;;;;;;;;-144.99;100.00;52484.78;4972025;28;19941;-69
2024/03/02 06:59:16;;;;;;;;;;;;;;;-144.99;100.00;52517.41;4933173;28;20376;-69
2024/03/02 07:01:43;;;;;;;;;;;;;;;-144.99;100.00;52497.00;4965176;28;20462;-69
2024/03/02 07:04:09;;;;;;;;;;;;;;;-144.99;100.00;52505.16;4954944;28;20034;-69
2024/03/02 07:06:36;;;;;;;;;;;;;;;-144.99;100.00;52509.25;4992985;28;20380;-69
2024/03/02 07:09:05;;;;;;;;;;;;;;;-144.99;100.00;52497.00;4964288;28;19937;-69
2024/03/02 07:11:31;;;;;;;;;;;;;;;-144.99;100.00;52499.06;4944422;28;20360;-69
2024/03/02 07:13:57;;;;;;;;;;;;;;;-144.99;100.00;52525.56;4968539;28;20461;-69
2024/03/02 07:16:29;;;;;;;;;;;;;;;-144.99;100.00;52490.91;4946011;28;20354;-70
2024/03/02 07:18:56;;;;;;;;;;;;;;;-144.99;100.00;52480.72;4975027;28;19933;-68
2024/03/02 07:21:23;;;;;;;;;;;;;;;-144.99;100.00;52517.41;4935384;28;20312;-69
2024/03/02 07:23:49;;;;;;;;;;;;;;;-144.99;100.00;52515.34;4937602;28;20391;-68
2024/03/02 07:26:18;;;;;;;;;;;;;;;-144.99;100.00;52515.34;4966028;28;19929;-63
2024/03/02 07:28:45;;;;;;;;;;;;;;;-144.99;100.00;52521.47;4984821;28;20367;-63
2024/03/02 07:31:11;;;;;;;;;;;;;;;-144.99;100.00;52497.00;4943552;28;19932;-63
2024/03/02 07:33:38;;;;;;;;;;;;;;;-144.99;100.00;52523.50;4948405;28;20467;-63
2024/03/02 07:36:05;;;;;;;;;;;;;;;-144.99;100.00;52460.31;4967200;28;20046;-63
2024/03/02 07:38:33;;;;;;;;;;;;;;;-144.99;100.00;52468.47;4953682;28;19962;-63
2024/03/02 07:41:00;;;;;;;;;;;;;;;-144.99;100.00;52480.72;4945857;28;19989;-64
2024/03/02 07:43:28;;;;;;;;;;;;;;;-144.99;100.00;52497.00;4957048;28;20377;-66
2024/03/02 07:45:55;;;;;;;;;;;;;;;-144.99;100.00;52509.25;4948828;28;19972;-64
2024/03/02 07:48:22;;;;;;;;;;;;;;;-144.99;100.00;52472.56;4972572;28;19953;-64
2024/03/02 07:50:48;;;;;;;;;;;;;;;-144.99;99.86;52476.63;4963004;28;19941;-64
2024/03/02 07:53:15;;;;;;;;;;;;;;;-144.99;99.29;52456.25;4942958;28;20026;-66
2024/03/02 07:55:41;;;;;;;;;;;;;;;-144.99;99.22;52472.56;4977514;28;19925;-66
2024/03/02 07:58:08;;;;;;;;;;;;;;;-144.99;98.77;52454.22;4942063;28;20017;-66
2024/03/02 08:00:36;;;;;;;;;;;;;;;-144.99;98.21;52427.72;5009862;28;19929;-65
2024/03/02 08:03:03;;;;;;;;;;;;;;;-144.99;98.04;52505.16;4938609;28;19945;-66
2024/03/02 08:05:29;;;;;;;;;;;;;;;-144.99;97.64;52448.09;4934367;28;20372;-66
2024/03/02 08:07:56;;;;;;;;;;;;;;;-144.99;97.10;52476.63;4977260;28;20019;-66
2024/03/02 08:10:22;;;;;;;;;;;;;;;-144.99;95.99;52480.72;4969615;28;19926;-65
2024/03/02 08:12:49;;;;;;;;;;;;;;;-144.99;95.41;52492.94;4947781;28;20382;-65
2024/03/02 08:15:15;;;;;;;;;;;;;;;-144.99;94.92;52501.09;4936878;28;20481;-67
2024/03/02 08:17:48;;;;;;;;;;;;;;;-144.99;94.43;52464.41;4956252;28;20364;-64
2024/03/02 08:20:14;;;;;;;;;;;;;;;-144.99;94.07;52474.59;4937701;28;20349;-64
2024/03/02 08:22:41;;;;;;;;;;;;;;;-144.99;92.96;52460.31;4967500;28;20017;-63
2024/03/02 08:25:09;;;;;;;;;;;;;;;-144.99;92.58;52480.72;4937407;28;20021;-64
2024/03/02 08:27:36;;;;;;;;;;;;;;;-144.99;91.37;52476.63;4971581;28;19927;-64
2024/03/02 08:30:03;;;;;;;;;;;;;;;-144.99;91.46;52431.78;4967305;28;19929;-65
2024/03/02 08:32:30;;;;;;;;;;;;;;;-144.99;90.64;52454.22;4969922;28;19927;-69
2024/03/02 08:34:58;;;;;;;;;;;;;;;-144.99;90.11;52456.25;4965522;28;19987;-68
2024/03/02 08:37:24;;;;;;;;;;;;;;;-144.99;89.75;52456.25;4946735;28;20262;-68
2024/03/02 08:39:51;;;;;;;;;;;;;;;-144.99;89.37;52468.47;4950631;28;19978;-68
2024/03/02 08:42:17;;;;;;;;;;;;;;;-144.99;89.85;52452.16;4959205;28;20582;-68
2024/03/02 08:44:44;;;;;;;;;;;;;;;-144.99;89.48;52456.25;4955374;28;20381;-68
2024/03/02 08:47:10;;;;;;;;;;;;;;;-144.99;89.96;52476.63;4965390;28;20025;-69
2024/03/02 08:49:37;;;;;;;;;;;;;;;-144.99;89.18;52427.72;4946265;28;19937;-69
2024/03/02 08:52:05;;;;;;;;;;;;;;;-144.99;89.08;52468.47;4976563;28;20445;-68
2024/03/02 08:54:33;;;;;;;;;;;;;;;-144.99;89.00;52484.78;4987400;28;19973;-69
2024/03/02 08:57:00;;;;;;;;;;;;;;;-144.99;88.42;52452.16;4971584;28;20385;-69
2024/03/02 08:59:27;;;;;;;;;;;;;;;-144.99;88.26;52431.78;4935383;28;19927;-68
2024/03/02 09:01:54;;;;;;;;;;;;;;;-144.99;88.55;52444.03;4965787;28;19931;-68
2024/03/02 09:04:20;;;;;;;;;;;;;;;-144.99;88.18;52437.91;4948040;28;19945;-68
2024/03/02 09:06:47;;;;;;;;;;;;;;;-144.99;87.51;52437.91;4966721;28;19931;-69
2024/03/02 09:09:15;;;;;;;;;;;;;;;-144.99;86.48;52413.44;4953256;28;20076;-68
2024/03/02 09:11:41;;;;;;;;;;;;;;;-144.99;85.51;52433.81;4944819;28;20020;-68
2024/03/02 09:14:08;;;;;;;;;;;;;;;-144.99;85.72;52454.22;4941745;28;19931;-68
2024/03/02 09:16:34;;;;;;;;;;;;;;;-144.99;84.77;52431.78;4940791;28;19929;-69
2024/03/02 09:19:01;;;;;;;;;;;;;;;-144.99;83.87;52444.03;4942832;28;19933;-69
2024/03/02 09:21:29;;;;;;;;;;;;;;;-144.99;83.45;52456.25;4944493;28;20055;-68
2024/03/02 09:23:56;;;;;;;;;;;;;;;-144.99;82.85;52468.47;4933196;28;19979;-69
2024/03/02 09:26:24;;;;;;;;;;;;;;;-144.99;81.99;52415.47;4944489;28;19936;-69
2024/03/02 09:28:51;;;;;;;;;;;;;;;-144.99;80.30;52382.88;4942146;28;20410;-68
2024/03/02 09:31:17;;;;;;;;;;;;;;;-144.99;78.22;52409.38;4590014;28;10000502;-69
2024/03/02 09:33:44;;;;;;;;;;;;;;;-144.99;77.04;52429.75;4927980;28;20015;-69
2024/03/02 09:36:17;;;;;;;;;;;;;;;-144.99;76.80;52419.56;4947388;28;19937;-69
2024/03/02 09:38:44;;;;;;;;;;;;;;;-144.99;75.74;52372.69;4931441;28;20017;-68
2024/03/02 09:41:10;;;;;;;;;;;;;;;-144.99;74.76;52376.75;4932166;28;19981;-68
2024/03/02 09:43:38;;;;;;;;;;;;;;;-144.99;74.53;52378.78;4928196;28;20041;-69
2024/03/02 09:46:06;;;;;;;;;;;;;;;-144.99;73.62;52429.75;4938123;28;19998;-69
2024/03/02 09:48:32;;;;;;;;;;;;;;;-144.99;73.10;52382.88;4961752;28;19945;-68
2024/03/02 09:51:00;;;;;;;;;;;;;;;-144.99;72.95;52370.63;4964393;28;19977;-68
2024/03/02 09:53:30;;;;;;;;;;;;;;;-144.99;71.96;52395.09;4942577;28;20025;-68
2024/03/02 09:55:57;;;;;;;;;;;;;;;-144.99;72.64;52393.06;4960503;28;20316;-69
2024/03/02 09:58:23;;;;;;;;;;;;;;;-144.99;72.34;52391.03;4938717;28;19997;-69
2024/03/02 10:00:51;;;;;;;;;;;;;;;-144.99;72.31;52423.63;4964552;28;20027;-68
2024/03/02 10:03:19;;;;;;;;;;;;;;;-144.99;71.35;52409.38;4941370;28;20017;-69
2024/03/02 10:05:45;;;;;;;;;;;;;;;-144.99;71.75;52448.09;4986424;28;20106;-69
2024/03/02 10:08:12;;;;;;;;;;;;;;;-144.99;71.58;52374.72;4970801;28;19927;-68
2024/03/02 10:10:41;;;;;;;;;;;;;;;-144.99;71.95;52382.88;4934592;28;19934;-68
2024/03/02 10:13:09;;;;;;;;;;;;;;;-144.99;71.30;52388.97;4943651;28;19931;-69
2024/03/02 10:15:36;;;;;;;;;;;;;;;-144.99;70.56;52382.88;4960812;28;19945;-69
2024/03/02 10:18:05;;;;;;;;;;;;;;;-144.99;69.57;52362.50;4967403;28;19937;-69
2024/03/02 10:20:33;;;;;;;;;;;;;;;-144.99;69.93;52374.72;4948368;28;19970;-69
2024/03/02 10:23:10;;;;;;;;;;;;;;;-144.99;70.28;52407.31;4936551;28;19935;-69
2024/03/02 10:25:37;;;;;;;;;;;;;;;-144.99;70.53;52386.94;4946758;28;19931;-69
2024/03/02 10:28:05;;;;;;;;;;;;;;;-144.99;69.72;52370.63;4970017;28;20022;-69
2024/03/02 10:30:32;;;;;;;;;;;;;;;-144.99;68.86;52362.50;4937057;28;19934;-69
2024/03/02 10:32:59;;;;;;;;;;;;;;;-144.99;68.84;52358.41;4948043;28;19934;-69
2024/03/02 10:35:27;;;;;;;;;;;;;;;-144.99;68.27;52411.41;4935385;28;20026;-69
2024/03/02 10:37:54;;;;;;;;;;;;;;;-144.99;69.66;52399.19;4939795;28;20414;-70
2024/03/02 10:40:22;;;;;;;;;;;;;;;-144.99;71.33;52354.34;4923436;28;19930;-69
2024/03/02 10:42:50;;;;;;;;;;;;;;;-144.99;71.13;52419.56;4964984;28;19929;-67
2024/03/02 10:45:17;;;;;;;;;;;;;;;-144.99;71.05;52391.03;4935850;28;20029;-69
2024/03/02 10:47:44;;;;;;;;;;;;;;;-144.99;70.94;52407.31;4926109;28;20033;-70
2024/03/02 10:50:11;;;;;;;;;;;;;;;-144.99;70.76;52423.63;4936613;28;20269;-70
2024/03/02 10:52:40;;;;;;;;;;;;;;;-144.99;71.05;52413.44;4926512;28;19935;-69
2024/03/02 10:55:09;;;;;;;;;;;;;;;-144.99;71.05;52378.78;4929893;28;20113;-69
2024/03/02 10:57:41;;;;;;;;;;;;;;;-144.99;71.74;52382.88;4934063;28;19935;-69
2024/03/02 11:00:14;;;;;;;;;;;;;;;-144.99;71.55;52431.78;4942899;28;19938;-68
2024/03/02 11:02:41;;;;;;;;;;;;;;;-144.99;72.49;52439.94;4928697;28;19966;-69
2024/03/02 11:05:10;;;;;;;;;;;;;;;-144.99;72.06;52415.47;4951436;28;20037;-69
2024/03/02 11:07:38;;;;;;;;;;;;;;;-144.99;71.88;52427.72;4927608;28;19943;-68
2024/03/02 11:10:09;;;;;;;;;;;;;;;-144.99;72.76;52439.94;4952143;28;20018;-68
2024/03/02 11:12:37;;;;;;;;;;;;;;;-144.99;72.20;52429.75;4929163;28;19970;-68
2024/03/02 11:15:05;;;;;;;;;;;;;;;-144.99;72.07;52439.94;4940941;28;19931;-70
2024/03/02 11:17:32;;;;;;;;;;;;;;;-144.99;71.55;52403.25;4946118;28;20310;-70
2024/03/02 11:19:59;;;;;;;;;;;;;;;-144.99;71.72;52452.16;4930245;28;19929;-69
2024/03/02 11:22:26;;;;;;;;;;;;;;;-144.99;71.50;52452.16;4935402;28;19935;-70
2024/03/02 11:24:53;;;;;;;;;;;;;;;-144.99;71.50;52386.94;4946209;28;20022;-69
2024/03/02 11:27:34;;;;;;;;;;;;;;;-144.99;71.12;52423.63;4917698;28;20425;-69
2024/03/02 11:30:03;;;;;;;;;;;;;;;-144.99;70.87;52427.72;4927713;28;20325;-69
2024/03/02 11:32:29;;;;;;;;;;;;;;;-144.99;71.12;52446.06;4953529;28;20273;-70
2024/03/02 11:34:56;;;;;;;;;;;;;;;-144.99;70.73;52435.88;4929237;28;20046;-69
2024/03/02 11:37:22;;;;;;;;;;;;;;;-144.99;71.48;52423.63;4936440;28;19931;-69
2024/03/02 11:39:50;;;;;;;;;;;;;;;-144.99;70.77;52476.63;4934332;28;19927;-69
2024/03/02 11:42:17;;;;;;;;;;;;;;;-144.99;70.78;52433.81;4932058;28;20018;-69
2024/03/02 11:44:44;;;;;;;;;;;;;;;-144.99;70.76;52423.63;4938805;28;19935;-70
2024/03/02 11:47:15;;;;;;;;;;;;;;;-144.99;70.87;52423.63;4960631;28;19993;-69
2024/03/02 11:49:42;;;;;;;;;;;;;;;-144.99;72.03;52419.56;4938079;28;20024;-70
2024/03/02 11:52:09;;;;;;;;;;;;;;;-144.99;71.46;52435.88;4946964;28;19994;-69
2024/03/02 11:54:39;;;;;;;;;;;;;;;-144.99;71.65;52427.72;4950236;28;20450;-70
2024/03/02 11:57:06;;;;;;;;;;;;;;;-144.99;71.34;52439.94;4963973;28;19931;-69
2024/03/02 11:59:33;;;;;;;;;;;;;;;-144.99;71.78;52456.25;4935258;28;19970;-70
2024/03/02 12:02:00;;;;;;;;;;;;;;;-144.99;72.15;52427.72;4946713;28;19934;-69
2024/03/02 12:04:28;;;;;;;;;;;;;;;-144.99;72.08;52439.94;4955576;28;20041;-69
2024/03/02 12:06:55;;;;;;;;;;;;;;;-144.99;71.43;52456.25;4943702;28;19932;-67
2024/03/02 12:09:22;;;;;;;;;;;;;;;-144.99;72.26;52460.31;4963845;28;19970;-70
2024/03/02 12:11:48;;;;;;;;;;;;;;;-144.99;72.29;52444.03;4950227;28;19968;-69
2024/03/02 12:14:15;;;;;;;;;;;;;;;-144.99;72.19;52431.78;4965419;28;20368;-69
2024/03/02 12:16:44;;;;;;;;;;;;;;;-144.99;72.26;52448.09;4954519;28;19929;-69
2024/03/02 12:19:11;;;;;;;;;;;;;;;-144.99;72.38;52480.72;4943607;28;20268;-69
2024/03/02 12:21:39;;;;;;;;;;;;;;;-144.99;72.59;52452.16;4964222;28;20023;-69
2024/03/02 12:24:05;;;;;;;;;;;;;;;-144.99;73.22;52466.44;4942640;28;20017;-69